Time;durP1;ratioP1;P1;durP2;ratioP2;P2;SDS_P1;SDS_P2;PMS_P1;PMS_P2;Temp;Humidity;BMP_temperature;BMP_pressure;BME280_temperature;BME280_humidity;BME280_pressure;Samples;Min_cycle;Max_cycle;Signal;HPM_P1;HPM_P2
2023/01/17 00:02:04;;;;;;;2.03;1.17;;;;;;;2.45;100.00;97590.63;4994105;28;20232;-76
2023/01/17 00:10:06;;;;;;;2.17;1.70;;;;;;;2.43;100.00;97606.00;4998077;28;20195;-74
2023/01/17 00:12:32;;;;;;;1.60;1.33;;;;;;;2.49;100.00;97610.13;5002353;28;20755;-76
2023/01/17 00:14:58;;;;;;;1.90;1.70;;;;;;;2.55;100.00;97616.84;5005284;28;20597;-78
2023/01/17 00:17:25;;;;;;;2.00;1.80;;;;;;;2.62;100.00;97623.50;4998324;28;20188;-76
2023/01/17 01:35:00;;;;;;;1.50;1.40;;;;;;;2.63;100.00;97617.53;4995042;28;20274;-74
2023/01/17 01:37:26;;;;;;;2.23;1.57;;;;;;;2.67;100.00;97614.03;4997575;28;20184;-75
2023/01/17 01:39:51;;;;;;;1.90;1.60;;;;;;;2.69;100.00;97614.03;5000332;28;20262;-74
2023/01/17 01:42:16;;;;;;;2.03;1.33;;;;;;;2.72;100.00;97614.78;4995279;28;20208;-74
2023/01/17 01:44:42;;;;;;;2.37;1.73;;;;;;;2.73;100.00;97608.81;4995557;28;20607;-76
2023/01/17 01:47:11;;;;;;;1.47;1.30;;;;;;;2.77;100.00;97613.88;4999035;28;20196;-75
2023/01/17 01:49:37;;;;;;;1.60;1.50;;;;;;;2.79;100.00;97612.94;4997910;28;20215;-75
2023/01/17 01:52:05;;;;;;;1.40;1.30;;;;;;;2.85;100.00;97609.41;4998685;28;20213;-76
2023/01/17 01:54:38;;;;;;;2.47;1.50;;;;;;;2.88;100.00;97604.25;4992464;28;20268;-77
2023/01/17 01:57:08;;;;;;;1.30;1.03;;;;;;;2.90;100.00;97607.63;4994054;28;20205;-74
2023/01/17 01:59:38;;;;;;;2.27;1.40;;;;;;;2.85;100.00;97607.72;4993202;28;20188;-74
2023/01/17 02:02:05;;;;;;;1.83;1.20;;;;;;;2.81;100.00;97613.75;4997317;28;20295;-74
2023/01/17 02:04:30;;;;;;;1.93;1.40;;;;;;;2.76;100.00;97615.56;4995909;28;20246;-77
2023/01/17 02:07:06;;;;;;;2.43;1.50;;;;;;;2.64;100.00;97614.13;4994147;28;20271;-77
2023/01/17 02:09:31;;;;;;;1.40;1.30;;;;;;;2.58;100.00;97614.22;4997491;28;20188;-75
2023/01/17 02:11:57;;;;;;;1.67;1.40;;;;;;;2.52;100.00;97622.00;4994766;28;20663;-77
2023/01/17 02:14:23;;;;;;;1.60;1.40;;;;;;;2.44;100.00;97617.91;4997683;28;20345;-75
2023/01/17 02:17:10;;;;;;;2.40;1.50;;;;;;;2.36;100.00;97611.25;4993704;28;20195;-75
2023/01/17 02:19:53;;;;;;;1.67;1.50;;;;;;;2.29;100.00;97611.34;4990914;28;20185;-75
2023/01/17 02:22:21;;;;;;;2.53;2.03;;;;;;;2.26;100.00;97608.03;5000054;28;20184;-74
2023/01/17 02:25:20;;;;;;;2.50;1.70;;;;;;;2.12;100.00;97605.72;4995557;28;20774;-74
2023/01/17 02:28:07;;;;;;;1.50;1.40;;;;;;;2.02;100.00;97605.06;5000424;28;20176;-74
2023/01/17 02:30:36;;;;;;;2.13;1.50;;;;;;;2.01;100.00;97602.53;4997721;28;20283;-73
2023/01/17 02:33:18;;;;;;;2.07;1.87;;;;;;;1.91;100.00;97602.69;4997972;28;20672;-76
2023/01/17 02:36:03;;;;;;;3.17;1.73;;;;;;;1.95;100.00;97606.03;5000492;28;20283;-75
2023/01/17 02:38:55;;;;;;;3.20;1.70;;;;;;;1.87;100.00;97615.53;5003691;28;20192;-77
2023/01/17 02:41:26;;;;;;;1.83;1.60;;;;;;;1.80;100.00;97609.69;4996986;28;20196;-76
2023/01/17 02:43:52;;;;;;;3.27;1.93;;;;;;;1.78;100.00;97622.44;4996755;28;20204;-77
2023/01/17 02:46:18;;;;;;;3.33;1.93;;;;;;;1.77;100.00;97623.31;4998316;28;20191;-77
2023/01/17 02:48:44;;;;;;;2.33;2.13;;;;;;;1.80;100.00;97627.53;4999718;28;20659;-75
2023/01/17 02:51:32;;;;;;;3.40;2.33;;;;;;;1.80;100.00;97610.53;4995427;28;20705;-74
2023/01/17 02:54:15;;;;;;;1.90;1.70;;;;;;;1.80;100.00;97623.28;4996616;28;20219;-76
2023/01/17 02:57:10;;;;;;;2.10;1.87;;;;;;;1.82;100.00;97626.63;4996520;28;20220;-75
2023/01/17 02:59:54;;;;;;;2.13;1.50;;;;;;;1.90;100.00;97630.75;4998371;28;20208;-75
2023/01/17 03:02:38;;;;;;;1.93;1.80;;;;;;;1.95;100.00;97619.63;4994940;28;20177;-75
2023/01/17 03:05:07;;;;;;;1.60;1.50;;;;;;;2.00;100.00;97627.19;4998563;28;20209;-75
2023/01/17 03:07:33;;;;;;;2.07;1.50;;;;;;;2.05;100.00;97634.78;4995451;28;20214;-76
2023/01/17 03:10:03;;;;;;;1.60;1.50;;;;;;;2.09;100.00;97633.84;4999630;28;20203;-77
2023/01/17 03:12:31;;;;;;;1.73;1.60;;;;;;;2.12;100.00;97628.69;5000998;28;20200;-76
2023/01/17 03:14:56;;;;;;;1.60;1.50;;;;;;;2.16;100.00;97632.88;5001797;28;20213;-75
2023/01/17 03:17:30;;;;;;;1.57;1.47;;;;;;;2.20;100.00;97633.63;5003806;28;20195;-76
2023/01/17 03:19:55;;;;;;;2.00;1.70;;;;;;;2.22;100.00;97627.66;5017312;28;20177;-77
2023/01/17 03:22:20;;;;;;;2.10;1.33;;;;;;;2.24;100.00;97633.59;5029760;28;20173;-75
2023/01/17 03:24:46;;;;;;;1.43;1.33;;;;;;;2.25;100.00;97632.72;5006049;28;20211;-75
2023/01/17 03:27:12;;;;;;;1.53;1.30;;;;;;;2.28;100.00;97631.81;5003134;28;20264;-75
2023/01/17 03:29:37;;;;;;;1.70;1.30;;;;;;;2.30;100.00;97637.72;5004272;28;20731;-75
2023/01/17 03:32:02;;;;;;;2.17;1.30;;;;;;;2.32;100.00;97624.94;4997892;28;20212;-77
2023/01/17 03:34:28;;;;;;;1.33;1.20;;;;;;;2.35;100.00;97629.97;5004164;28;20211;-76
2023/01/17 03:36:53;;;;;;;1.20;1.10;;;;;;;2.39;100.00;97626.50;4995132;28;20189;-74
2023/01/17 03:39:18;;;;;;;1.53;1.40;;;;;;;2.42;100.00;97623.91;5001564;28;20185;-77
2023/01/17 03:41:44;;;;;;;1.30;1.20;;;;;;;2.44;100.00;97625.56;5001192;28;20200;-75
2023/01/17 03:44:09;;;;;;;1.30;1.20;;;;;;;2.46;100.00;97629.78;4995500;28;20210;-75
2023/01/17 03:46:35;;;;;;;1.47;1.23;;;;;;;2.46;100.00;97628.06;4996739;28;20664;-78
2023/01/17 03:49:01;;;;;;;1.40;1.30;;;;;;;2.48;100.00;97625.50;4995180;28;20378;-77
2023/01/17 03:51:26;;;;;;;2.00;1.30;;;;;;;2.47;100.00;97619.53;4992244;28;20204;-77
2023/01/17 03:53:51;;;;;;;1.63;1.17;;;;;;;2.49;100.00;97620.34;4998750;28;20216;-77
2023/01/17 03:56:17;;;;;;;1.83;1.50;;;;;;;2.44;100.00;97615.34;4998056;28;20189;-76
2023/01/17 03:58:42;;;;;;;2.50;1.17;;;;;;;2.37;100.00;97618.03;4996026;28;20571;-77
2023/01/17 04:01:08;;;;;;;2.00;1.20;;;;;;;2.27;100.00;97617.38;4999185;28;20186;-76
2023/01/17 04:03:33;;;;;;;3.37;1.10;;;;;;;2.20;100.00;97623.44;5002330;28;20197;-76
2023/01/17 04:05:58;;;;;;;2.07;1.10;;;;;;;2.17;100.00;97623.50;5007826;28;20193;-77
2023/01/17 04:08:24;;;;;;;1.90;1.00;;;;;;;2.13;100.00;97622.69;5001812;28;20180;-77
2023/01/17 04:10:49;;;;;;;1.10;1.00;;;;;;;2.06;100.00;97619.41;4997160;28;20197;-76
2023/01/17 04:13:15;;;;;;;1.47;1.23;;;;;;;1.99;100.00;97620.41;4995119;28;20193;-77
2023/01/17 04:15:44;;;;;;;1.53;1.20;;;;;;;1.91;100.00;97623.09;4999638;28;20599;-76
2023/01/17 04:18:11;;;;;;;2.47;1.10;;;;;;;1.81;100.00;97619.84;5000131;28;20180;-77
2023/01/17 04:20:38;;;;;;;1.77;1.30;;;;;;;1.74;100.00;97619.97;4997669;28;20184;-77
2023/01/17 04:23:04;;;;;;;1.37;1.00;;;;;;;1.66;100.00;97620.09;4997668;28;20220;-78
2023/01/17 04:25:30;;;;;;;1.47;0.80;;;;;;;1.59;100.00;97613.44;5003304;28;20266;-76
2023/01/17 04:27:57;;;;;;;1.70;1.33;;;;;;;1.54;100.00;97608.38;4999161;28;20196;-76
2023/01/17 04:30:22;;;;;;;2.53;1.07;;;;;;;1.48;100.00;97605.94;5002804;28;20209;-76
2023/01/17 04:32:48;;;;;;;1.20;1.07;;;;;;;1.42;100.00;97617.09;4997569;28;20199;-76
2023/01/17 04:35:14;;;;;;;1.70;1.27;;;;;;;1.39;100.00;97609.47;4999289;28;20204;-78
2023/01/17 04:37:39;;;;;;;1.07;0.97;;;;;;;1.37;100.00;97608.66;4996951;28;20271;-75
2023/01/17 04:40:05;;;;;;;2.17;0.90;;;;;;;1.32;100.00;97608.72;4993066;28;20284;-77
2023/01/17 04:42:30;;;;;;;1.83;0.70;;;;;;;1.27;100.00;97604.56;4994109;28;20666;-77
2023/01/17 04:44:56;;;;;;;1.20;0.90;;;;;;;1.20;100.00;97609.75;4996186;28;20636;-77
2023/01/17 04:47:21;;;;;;;1.13;0.93;;;;;;;1.14;100.00;97599.63;4997845;28;20216;-76
2023/01/17 04:49:46;;;;;;;1.73;1.00;;;;;;;1.10;100.00;97592.06;4996435;28;20785;-74
2023/01/17 04:52:13;;;;;;;2.63;0.87;;;;;;;1.06;100.00;97591.28;4992831;28;20288;-74
2023/01/17 04:54:39;;;;;;;1.67;0.90;;;;;;;1.01;100.00;97593.88;4991013;28;20227;-78
2023/01/17 04:57:04;;;;;;;1.60;1.00;;;;;;;0.98;100.00;97591.38;4996402;28;20272;-74
2023/01/17 04:59:30;;;;;;;0.67;0.60;;;;;;;0.94;100.00;97579.53;4995400;28;20184;-74
2023/01/17 05:01:55;;;;;;;1.40;0.60;;;;;;;0.91;100.00;97577.03;5001343;28;20696;-75
2023/01/17 05:04:20;;;;;;;1.60;1.00;;;;;;;0.92;100.00;97588.91;5007065;28;20211;-78
2023/01/17 05:06:45;;;;;;;0.90;0.80;;;;;;;0.91;100.00;97577.03;4994803;28;20272;-76
2023/01/17 05:09:11;;;;;;;0.60;0.60;;;;;;;0.91;100.00;97582.13;4998161;28;20196;-76
2023/01/17 05:11:36;;;;;;;1.70;0.73;;;;;;;0.96;100.00;97579.53;4992392;28;20235;-77
2023/01/17 05:14:01;;;;;;;1.80;0.63;;;;;;;1.00;100.00;97574.38;4995198;28;20328;-76
2023/01/17 05:16:27;;;;;;;1.83;0.77;;;;;;;1.01;100.00;97573.50;4993937;28;20826;-75
2023/01/17 05:18:52;;;;;;;1.37;0.90;;;;;;;1.05;100.00;97562.44;4994434;28;20201;-75
2023/01/17 05:21:21;;;;;;;1.27;0.70;;;;;;;1.05;100.00;97564.97;4994562;28;20195;-75
2023/01/17 05:23:46;;;;;;;1.57;0.70;;;;;;;1.07;100.00;97562.41;4993201;28;20205;-73
2023/01/17 05:26:12;;;;;;;1.07;0.80;;;;;;;1.09;100.00;97563.22;4998148;28;20192;-75
2023/01/17 05:28:37;;;;;;;0.90;0.70;;;;;;;1.12;100.00;97564.88;5013738;28;20164;-76
2023/01/17 05:31:02;;;;;;;1.10;0.60;;;;;;;1.13;100.00;97567.41;5028866;28;20248;-74
2023/01/17 05:33:28;;;;;;;0.70;0.53;;;;;;;1.16;100.00;97566.50;5007134;28;20208;-76
2023/01/17 05:35:53;;;;;;;1.03;0.60;;;;;;;1.17;100.00;97565.66;4993233;28;20196;-76
2023/01/17 05:38:19;;;;;;;1.93;0.80;;;;;;;1.18;100.00;97562.25;4994674;28;20267;-76
2023/01/17 05:40:44;;;;;;;1.13;0.87;;;;;;;1.19;100.00;97561.38;4992406;28;20193;-75
2023/01/17 05:43:10;;;;;;;0.80;0.60;;;;;;;1.19;100.00;97558.84;4991783;28;20255;-74
2023/01/17 05:45:35;;;;;;;0.60;0.60;;;;;;;1.18;100.00;97557.16;4998009;28;20247;-75
2023/01/17 05:48:02;;;;;;;0.87;0.67;;;;;;;1.15;100.00;97550.38;4995826;28;20197;-74
2023/01/17 05:50:33;;;;;;;0.77;0.67;;;;;;;1.14;100.00;97547.84;4999951;28;20226;-76
2023/01/17 05:53:02;;;;;;;0.80;0.67;;;;;;;1.11;100.00;97542.81;4990127;28;20196;-75
2023/01/17 05:55:29;;;;;;;0.53;0.50;;;;;;;1.09;100.00;97545.38;4998060;28;20205;-75
2023/01/17 05:57:54;;;;;;;0.90;0.70;;;;;;;1.06;100.00;97541.16;5006006;28;20201;-76
2023/01/17 06:00:21;;;;;;;0.70;0.60;;;;;;;1.05;100.00;97548.84;4996119;28;20184;-74
2023/01/17 06:02:47;;;;;;;1.17;0.70;;;;;;;1.10;100.00;97543.66;4992455;28;20280;-74
2023/01/17 06:05:13;;;;;;;0.80;0.70;;;;;;;1.13;100.00;97546.19;5001361;28;20596;-77
2023/01/17 06:07:41;;;;;;;1.07;0.50;;;;;;;1.17;100.00;97540.19;5000147;28;20184;-76
2023/01/17 06:10:09;;;;;;;0.90;0.63;;;;;;;1.23;100.00;97546.88;4990462;28;20676;-77
2023/01/17 06:12:35;;;;;;;2.03;0.90;;;;;;;1.32;99.00;97541.63;4993198;28;20197;-77
2023/01/17 06:15:00;;;;;;;1.43;0.97;;;;;;;1.38;99.26;97541.53;4998300;28;20279;-74
2023/01/17 06:17:25;;;;;;;1.77;1.10;;;;;;;1.45;99.82;97547.38;5001699;28;20679;-75
2023/01/17 06:19:50;;;;;;;1.80;1.17;;;;;;;1.52;100.00;97548.94;5000679;28;20262;-74
2023/01/17 06:22:16;;;;;;;2.20;1.20;;;;;;;1.56;100.00;97547.22;5002418;28;20750;-75
2023/01/17 06:24:41;;;;;;;1.33;1.00;;;;;;;1.60;100.00;97548.81;5002179;28;20212;-76
2023/01/17 06:27:09;;;;;;;2.27;1.40;;;;;;;1.62;100.00;97545.41;4998888;28;20185;-74
2023/01/17 06:29:35;;;;;;;1.77;1.30;;;;;;;1.63;100.00;97551.31;5003880;28;20210;-77
2023/01/17 06:32:02;;;;;;;1.17;1.07;;;;;;;1.65;100.00;97552.13;5003221;28;20212;-74
2023/01/17 06:34:27;;;;;;;1.97;1.23;;;;;;;1.68;100.00;97545.28;4997387;28;20221;-76
2023/01/17 06:36:52;;;;;;;1.60;1.50;;;;;;;1.67;100.00;97547.84;5000958;28;20708;-75
2023/01/17 06:39:18;;;;;;;1.40;1.30;;;;;;;1.64;100.00;97546.22;5001959;28;20279;-77
2023/01/17 06:41:43;;;;;;;1.60;1.30;;;;;;;1.63;100.00;97543.66;4998723;28;20221;-77
2023/01/17 06:44:09;;;;;;;2.13;1.50;;;;;;;1.68;100.00;97552.09;5002686;28;20320;-77
2023/01/17 06:46:34;;;;;;;2.90;1.83;;;;;;;1.75;100.00;97555.38;5003094;28;20192;-78
2023/01/17 06:48:59;;;;;;;1.77;1.57;;;;;;;1.76;100.00;97551.97;4999622;28;20228;-78
2023/01/17 06:51:25;;;;;;;2.60;1.67;;;;;;;1.73;100.00;97549.44;4996638;28;20724;-73
2023/01/17 06:53:50;;;;;;;2.90;1.90;;;;;;;1.73;100.00;97560.50;5001844;28;20736;-74
2023/01/17 06:56:15;;;;;;;2.00;1.80;;;;;;;1.75;100.00;97565.56;4997344;28;20200;-72
2023/01/17 06:58:40;;;;;;;2.23;1.60;;;;;;;1.70;100.00;97562.25;5000623;28;20195;-73
2023/01/17 07:01:08;;;;;;;2.27;1.50;;;;;;;1.63;100.00;97551.31;5001368;28;21243;-74
2023/01/17 07:03:34;;;;;;;1.87;1.70;;;;;;;1.59;100.00;97552.25;5004164;28;20296;-75
2023/01/17 07:06:03;;;;;;;3.73;1.70;;;;;;;1.58;100.00;97553.94;5006848;28;20314;-73
2023/01/17 07:08:30;;;;;;;2.10;1.90;;;;;;;1.52;100.00;97541.28;5002830;28;20192;-74
2023/01/17 07:11:01;;;;;;;2.70;1.97;;;;;;;1.54;100.00;97546.38;5005727;28;20219;-74
2023/01/17 07:13:27;;;;;;;3.53;1.90;;;;;;;1.51;100.00;97537.09;5001553;28;20192;-74
2023/01/17 07:15:52;;;;;;;3.20;1.90;;;;;;;1.45;100.00;97532.91;5005776;28;20200;-74
2023/01/17 07:18:21;;;;;;;2.20;1.80;;;;;;;1.46;100.00;97529.50;5001634;28;20216;-77
2023/01/17 07:20:47;;;;;;;3.27;1.80;;;;;;;1.45;100.00;97527.81;5003845;28;20184;-77
2023/01/17 07:23:12;;;;;;;2.80;1.80;;;;;;;1.48;100.00;97525.22;5011799;28;20203;-77
2023/01/17 07:25:37;;;;;;;2.23;1.87;;;;;;;1.51;100.00;97522.63;5001723;28;20301;-76
2023/01/17 07:28:03;;;;;;;1.67;1.40;;;;;;;1.56;100.00;97524.25;5002039;28;20644;-75
2023/01/17 07:30:28;;;;;;;4.00;2.77;;;;;;;1.61;100.00;97528.41;5003102;28;20208;-74
2023/01/17 07:32:54;;;;;;;2.40;2.03;;;;;;;1.66;100.00;97521.50;5003564;28;20636;-75
2023/01/17 07:35:20;;;;;;;3.13;1.90;;;;;;;1.65;100.00;97524.09;5005996;28;20209;-75
2023/01/17 07:37:49;;;;;;;2.00;1.60;;;;;;;1.65;100.00;97529.19;5002933;28;20199;-75
2023/01/17 07:40:19;;;;;;;2.23;1.50;;;;;;;1.67;100.00;97530.00;5000925;28;20228;-75
2023/01/17 07:42:45;;;;;;;2.50;1.63;;;;;;;1.67;100.00;97532.56;5031347;28;20176;-76
2023/01/17 07:45:12;;;;;;;1.67;1.50;;;;;;;1.66;100.00;97529.16;5015371;28;20574;-74
2023/01/17 07:47:37;;;;;;;2.27;2.07;;;;;;;1.63;100.00;97525.81;4998569;28;20185;-76
2023/01/17 07:50:03;;;;;;;1.63;1.53;;;;;;;1.58;100.00;97515.72;5004318;28;20199;-74
2023/01/17 07:52:29;;;;;;;2.27;1.70;;;;;;;1.56;100.00;97514.91;5008016;28;20208;-74
2023/01/17 07:54:54;;;;;;;1.87;1.47;;;;;;;1.54;100.00;97528.53;5003274;28;20216;-73
2023/01/17 07:57:19;;;;;;;2.10;1.70;;;;;;;1.54;100.00;97538.75;5002675;28;20587;-78
2023/01/17 07:59:45;;;;;;;2.50;1.67;;;;;;;1.55;100.00;97531.06;4998494;28;20750;-76
2023/01/17 08:02:21;;;;;;;2.33;1.80;;;;;;;1.59;100.00;97519.94;5004553;28;20212;-77
2023/01/17 08:04:47;;;;;;;3.07;1.90;;;;;;;1.65;100.00;97521.53;5009416;28;20235;-74
2023/01/17 08:07:13;;;;;;;2.73;1.67;;;;;;;1.70;100.00;97517.22;5003370;28;20692;-76
2023/01/17 08:09:40;;;;;;;4.57;2.10;;;;;;;1.75;100.00;97517.13;5007989;28;20280;-74
2023/01/17 08:12:05;;;;;;;2.23;2.03;;;;;;;1.78;100.00;97523.00;5003804;28;20288;-74
2023/01/17 08:14:30;;;;;;;2.57;2.10;;;;;;;1.80;100.00;97526.38;5007175;28;20291;-74
2023/01/17 08:17:22;;;;;;;2.33;2.13;;;;;;;1.84;100.00;97532.25;4998682;28;20661;-74
2023/01/17 08:19:51;;;;;;;3.90;2.17;;;;;;;1.89;100.00;97537.28;5000632;28;20192;-73
2023/01/17 08:22:17;;;;;;;3.73;1.90;;;;;;;1.96;100.00;97543.94;5015077;28;20709;-73
2023/01/17 08:24:43;;;;;;;1.97;1.60;;;;;;;2.00;100.00;97532.81;5003187;28;20315;-74
2023/01/17 08:27:09;;;;;;;2.13;1.93;;;;;;;2.05;100.00;97532.72;5000845;28;20192;-74
2023/01/17 08:29:34;;;;;;;2.43;2.00;;;;;;;2.08;100.00;97523.28;5004419;28;20657;-73
2023/01/17 08:31:59;;;;;;;2.27;1.83;;;;;;;2.11;100.00;97513.03;5004300;28;20299;-74
2023/01/17 08:34:25;;;;;;;2.00;1.60;;;;;;;2.19;100.00;97518.00;5003981;28;20270;-74
2023/01/17 08:36:52;;;;;;;2.57;1.70;;;;;;;2.31;100.00;97510.94;4998781;28;20211;-75
2023/01/17 08:39:18;;;;;;;1.80;1.60;;;;;;;2.41;100.00;97515.03;4997758;28;20267;-74
2023/01/17 08:41:44;;;;;;;2.70;1.90;;;;;;;2.48;100.00;97511.44;5001619;28;20183;-73
2023/01/17 08:44:10;;;;;;;2.27;1.70;;;;;;;2.63;100.00;97506.88;5001221;28;20205;-76
2023/01/17 08:46:37;;;;;;;3.27;1.80;;;;;;;2.81;100.00;97509.03;5004849;28;20186;-76
2023/01/17 08:49:02;;;;;;;1.70;1.60;;;;;;;3.01;100.00;97508.56;5002986;28;20813;-75
2023/01/17 08:51:28;;;;;;;3.57;1.77;;;;;;;3.25;100.00;97502.91;4998473;28;20273;-76
2023/01/17 08:53:55;;;;;;;2.83;1.63;;;;;;;3.43;100.00;97506.72;5001576;28;20203;-76
2023/01/17 08:56:22;;;;;;;3.03;2.10;;;;;;;3.58;100.00;97505.53;5003020;28;20210;-74
2023/01/17 08:58:48;;;;;;;2.03;1.43;;;;;;;3.71;100.00;97499.22;5002709;28;20208;-73
2023/01/17 09:01:13;;;;;;;2.83;1.70;;;;;;;3.79;100.00;97499.84;5009040;28;20672;-75
2023/01/17 09:03:38;;;;;;;2.77;1.57;;;;;;;3.80;100.00;97493.00;5005725;28;20581;-74
2023/01/17 09:06:08;;;;;;;2.47;2.03;;;;;;;3.82;100.00;97493.81;5005557;28;20196;-74
2023/01/17 09:08:34;;;;;;;2.37;2.13;;;;;;;3.81;99.44;97492.97;5002834;28;20185;-75
2023/01/17 09:11:08;;;;;;;3.77;1.93;;;;;;;3.76;99.26;97488.84;5005376;28;20219;-76
2023/01/17 09:13:33;;;;;;;3.00;2.10;;;;;;;3.65;97.67;97492.53;5001242;28;20287;-75
2023/01/17 09:15:59;;;;;;;3.77;2.63;;;;;;;3.49;96.65;97491.25;5001058;28;20283;-74
2023/01/17 09:18:25;;;;;;;4.23;2.00;;;;;;;3.39;97.16;97489.81;5004349;28;20192;-75
2023/01/17 09:20:58;;;;;;;2.60;1.90;;;;;;;3.34;97.55;97495.88;4997372;28;20188;-76
2023/01/17 09:23:26;;;;;;;3.67;2.17;;;;;;;3.29;96.65;97496.88;5004479;28;20196;-74
2023/01/17 09:25:52;;;;;;;2.93;1.70;;;;;;;3.28;97.12;97498.56;5000917;28;20193;-78
2023/01/17 09:28:18;;;;;;;3.03;1.73;;;;;;;3.29;96.41;97495.13;5002372;28;20185;-74
2023/01/17 09:30:44;;;;;;;3.60;2.00;;;;;;;3.30;95.95;97480.66;5003268;28;20235;-75
2023/01/17 09:33:09;;;;;;;2.37;1.93;;;;;;;3.31;95.88;97490.00;5003349;28;20726;-75
2023/01/17 09:35:34;;;;;;;2.43;2.03;;;;;;;3.32;95.34;97486.56;4995186;28;20200;-74
2023/01/17 09:38:00;;;;;;;1.97;1.77;;;;;;;3.34;95.07;97484.78;5000383;28;20271;-76
2023/01/17 09:40:25;;;;;;;2.40;1.83;;;;;;;3.35;94.63;97481.38;4999369;28;20196;-74
2023/01/17 09:42:56;;;;;;;4.73;1.97;;;;;;;3.38;94.21;97488.97;4992851;28;20229;-74
2023/01/17 09:45:24;;;;;;;2.43;1.90;;;;;;;3.43;93.47;97484.56;4998273;28;20255;-75
2023/01/17 09:47:52;;;;;;;4.03;2.43;;;;;;;3.48;92.87;97484.47;5004391;28;20181;-76
2023/01/17 09:50:51;;;;;;;3.90;2.67;;;;;;;3.55;90.85;97480.88;4995287;28;20284;-76
2023/01/17 09:53:21;;;;;;;3.43;2.50;;;;;;;3.60;90.03;97479.03;5003203;28;20216;-75
2023/01/17 09:55:50;;;;;;;2.27;1.83;;;;;;;3.66;88.95;97480.56;5022518;28;20730;-76
2023/01/17 09:58:31;;;;;;;2.10;1.87;;;;;;;3.71;87.75;97477.88;5021905;28;20648;-76
2023/01/17 10:01:08;;;;;;;2.97;1.80;;;;;;;3.79;87.62;97484.47;4993164;28;20267;-76
2023/01/17 10:03:41;;;;;;;2.97;1.50;;;;;;;3.88;87.38;97477.47;5000739;28;20409;-76
2023/01/17 10:06:24;;;;;;;2.07;1.53;;;;;;;3.99;86.13;97482.28;4992892;28;20248;-74
2023/01/17 10:09:24;;;;;;;2.23;1.57;;;;;;;4.10;85.73;97480.25;5000617;28;20188;-74
2023/01/17 10:12:21;;;;;;;2.90;1.40;;;;;;;4.24;85.36;97475.59;4989626;28;20221;-74
2023/01/17 10:15:05;;;;;;;2.27;1.57;;;;;;;4.35;84.24;97469.31;4993298;28;20221;-75
2023/01/17 10:17:37;;;;;;;1.93;1.37;;;;;;;4.45;83.96;97467.31;5009936;28;20293;-74
2023/01/17 10:20:32;;;;;;;1.87;1.53;;;;;;;4.57;84.04;97472.06;4991858;28;20211;-75
2023/01/17 10:23:26;;;;;;;2.17;1.37;;;;;;;4.66;83.79;97471.81;4992933;28;20197;-75
2023/01/17 10:25:55;;;;;;;1.67;1.47;;;;;;;4.67;82.91;97468.38;4989056;28;20198;-75
2023/01/17 10:28:33;;;;;;;2.43;1.67;;;;;;;4.74;82.85;97461.34;4988348;28;20211;-73
2023/01/17 10:31:14;;;;;;;2.23;1.47;;;;;;;4.82;82.93;97459.34;4989555;28;20244;-75
2023/01/17 10:33:54;;;;;;;1.63;1.27;;;;;;;4.87;82.52;97442.13;4999335;28;20211;-77
2023/01/17 10:36:23;;;;;;;1.30;1.20;;;;;;;4.93;82.47;97445.34;4996623;28;21014;-74
2023/01/17 10:38:52;;;;;;;2.03;1.20;;;;;;;4.95;81.70;97446.16;4999067;28;20272;-73
2023/01/17 10:41:35;;;;;;;1.37;0.90;;;;;;;4.96;81.36;97446.13;5004880;28;20236;-76
2023/01/17 10:44:22;;;;;;;2.27;1.50;;;;;;;5.03;81.44;97441.63;5006627;28;20213;-76
2023/01/17 10:46:53;;;;;;;1.93;1.33;;;;;;;5.13;81.27;97437.03;5001869;28;20194;-75
2023/01/17 10:49:22;;;;;;;1.77;1.00;;;;;;;5.19;81.60;97426.56;5002485;28;20194;-76
2023/01/17 10:52:08;;;;;;;1.37;1.00;;;;;;;5.28;81.91;97416.03;5003192;28;20247;-75
2023/01/17 10:54:55;;;;;;;1.30;1.20;;;;;;;5.35;81.83;97429.47;4995434;28;20226;-74
2023/01/17 10:57:25;;;;;;;1.30;1.20;;;;;;;5.37;80.70;97426.84;5005688;28;20737;-73
2023/01/17 10:59:52;;;;;;;1.27;1.10;;;;;;;5.49;80.18;97419.59;4988380;28;20204;-73
2023/01/17 11:02:22;;;;;;;1.60;1.30;;;;;;;5.51;80.01;97416.94;4990698;28;21664;-72
2023/01/17 11:04:53;;;;;;;1.33;1.10;;;;;;;5.63;80.16;97408.00;4998905;28;20206;-74
2023/01/17 11:07:28;;;;;;;2.40;1.30;;;;;;;5.81;80.02;97403.94;4993381;28;20195;-77
2023/01/17 11:09:55;;;;;;;0.97;0.87;;;;;;;5.98;79.91;97407.63;4994478;28;20231;-73
2023/01/17 11:12:42;;;;;;;1.33;1.17;;;;;;;6.18;79.33;97400.03;5004370;28;20217;-74
2023/01/17 11:15:08;;;;;;;2.53;1.50;;;;;;;6.27;78.81;97387.75;5000621;28;20210;-73
2023/01/17 11:17:44;;;;;;;1.10;1.00;;;;;;;6.31;77.79;97384.16;5003200;28;20195;-74
2023/01/17 11:20:22;;;;;;;1.63;0.97;;;;;;;6.37;78.05;97389.06;4993762;28;20666;-74
2023/01/17 11:23:05;;;;;;;1.60;0.97;;;;;;;6.34;76.98;97373.78;5000487;28;20187;-73
2023/01/17 11:25:32;;;;;;;1.47;1.00;;;;;;;6.35;77.09;97368.56;5004064;28;22164;-76
2023/01/17 11:28:20;;;;;;;1.30;1.10;;;;;;;6.28;75.57;97374.81;5003770;28;20265;-76
2023/01/17 11:30:56;;;;;;;2.93;1.00;;;;;;;6.15;74.42;97376.19;4998246;28;20235;-77
2023/01/17 11:33:43;;;;;;;1.47;0.87;;;;;;;6.08;72.90;97371.31;4997316;28;20200;-76
2023/01/17 11:36:26;;;;;;;0.80;0.67;;;;;;;6.02;71.17;97366.38;4998985;28;20184;-74
2023/01/17 11:38:57;;;;;;;1.80;0.90;;;;;;;6.03;71.07;97354.41;5002653;28;20183;-74
2023/01/17 11:41:24;;;;;;;2.00;1.00;;;;;;;6.02;72.07;97352.75;4998374;28;20562;-75
2023/01/17 11:43:59;;;;;;;2.20;0.90;;;;;;;6.13;72.45;97335.19;4996611;28;20517;-76
2023/01/17 11:46:29;;;;;;;2.30;0.90;;;;;;;6.18;71.07;97329.88;4998465;28;20222;-75
2023/01/17 11:48:59;;;;;;;1.63;1.10;;;;;;;6.35;71.73;97324.91;4997267;28;20258;-75
2023/01/17 11:51:33;;;;;;;1.00;0.90;;;;;;;6.55;72.02;97320.72;4999006;28;20345;-75
2023/01/17 11:54:14;;;;;;;1.03;0.90;;;;;;;6.68;70.97;97324.47;5000926;28;20512;-75
2023/01/17 11:56:42;;;;;;;2.03;0.80;;;;;;;6.85;68.49;97321.19;5001327;28;20199;-77
2023/01/17 11:59:17;;;;;;;0.73;0.60;;;;;;;6.97;67.39;97312.13;4999757;28;20204;-75
2023/01/17 12:01:54;;;;;;;0.77;0.40;;;;;;;7.11;66.76;97314.09;4996753;28;20192;-75
2023/01/17 12:04:41;;;;;;;1.40;0.60;;;;;;;7.10;64.74;97294.44;4998679;28;20302;-76
2023/01/17 12:07:22;;;;;;;1.10;0.60;;;;;;;7.03;65.42;97295.59;5009520;28;20192;-74
2023/01/17 12:09:59;;;;;;;1.00;0.70;;;;;;;7.04;66.56;97291.28;5026181;28;20180;-75
2023/01/17 12:15:17;;;;;;;0.70;0.40;;;;;;;6.82;66.39;97277.59;5004256;28;20211;-75
2023/01/17 12:18:05;;;;;;;1.00;0.60;;;;;;;6.64;65.36;97262.97;4997762;28;20251;-76
2023/01/17 12:20:47;;;;;;;2.30;0.80;;;;;;;6.43;65.19;97262.13;5004333;28;20705;-76
2023/01/17 12:23:21;;;;;;;1.03;0.60;;;;;;;6.40;66.52;97257.94;4999701;28;20190;-76
2023/01/17 12:25:53;;;;;;;1.70;0.63;;;;;;;6.45;67.47;97245.75;5000057;28;20232;-75
2023/01/17 12:28:57;;;;;;;1.03;0.70;;;;;;;6.59;68.01;97241.75;4997718;28;20188;-76
2023/01/17 12:31:41;;;;;;;1.53;0.70;;;;;;;6.79;68.41;97233.22;5000847;28;20245;-76
2023/01/17 12:34:28;;;;;;;1.73;1.00;;;;;;;7.04;68.36;97217.56;4996089;28;20283;-76
2023/01/17 12:37:12;;;;;;;1.13;0.70;;;;;;;7.21;69.23;97210.84;4993879;28;20663;-75
2023/01/17 12:39:42;;;;;;;1.63;0.90;;;;;;;7.20;69.80;97207.41;5006631;28;20274;-75
2023/01/17 12:42:13;;;;;;;0.73;0.70;;;;;;;7.09;69.59;97207.91;5001977;28;20178;-75
2023/01/17 12:45:08;;;;;;;1.60;0.73;;;;;;;6.87;69.93;97205.44;5000148;28;20209;-76
2023/01/17 12:47:41;;;;;;;1.10;0.70;;;;;;;6.69;70.05;97204.50;5001903;28;20202;-75
2023/01/17 12:50:32;;;;;;;1.87;0.70;;;;;;;6.54;71.45;97221.41;5005026;28;20179;-75
2023/01/17 12:53:17;;;;;;;0.83;0.70;;;;;;;6.40;71.58;97211.69;5002188;28;20959;-76
2023/01/17 12:55:55;;;;;;;1.53;0.70;;;;;;;6.23;72.43;97215.78;4999465;28;20180;-76
2023/01/17 12:58:24;;;;;;;0.70;0.57;;;;;;;6.07;72.35;97220.72;4996367;28;20190;-75
2023/01/17 13:00:59;;;;;;;1.13;0.70;;;;;;;5.92;71.94;97214.44;4996802;28;20263;-75
2023/01/17 13:03:38;;;;;;;0.80;0.70;;;;;;;5.85;72.19;97217.28;4995200;28;20190;-76
2023/01/17 13:06:06;;;;;;;0.87;0.60;;;;;;;5.84;72.43;97213.06;5007923;28;20229;-76
2023/01/17 13:08:42;;;;;;;0.97;0.70;;;;;;;5.80;72.50;97210.63;4998060;28;20197;-77
2023/01/17 13:11:18;;;;;;;0.90;0.80;;;;;;;5.82;72.17;97222.56;5000389;28;20212;-75
2023/01/17 13:13:43;;;;;;;0.97;0.60;;;;;;;5.85;72.35;97212.16;4996536;28;20210;-76
2023/01/17 13:16:31;;;;;;;1.83;0.80;;;;;;;5.92;71.56;97213.59;4995050;28;20186;-76